createdAt,value
2022-11-29T00:01:56.148Z,9.70
2022-11-29T00:04:22.875Z,9.86
2022-11-29T00:06:49.490Z,9.83
2022-11-29T00:09:16.176Z,9.77
2022-11-29T00:11:42.824Z,9.75
2022-11-29T00:14:11.855Z,9.72
2022-11-29T00:16:38.520Z,9.68
2022-11-29T00:19:05.147Z,9.71
2022-11-29T00:21:31.772Z,9.63
2022-11-29T00:23:58.410Z,9.63
2022-11-29T00:26:25.066Z,9.63
2022-11-29T00:28:51.689Z,9.63
2022-11-29T00:31:29.055Z,9.58
2022-11-29T00:33:56.431Z,9.54
2022-11-29T00:36:23.229Z,9.50
2022-11-29T00:38:49.874Z,9.52
2022-11-29T00:41:16.518Z,9.51
2022-11-29T00:43:43.159Z,9.50
2022-11-29T00:46:09.821Z,9.47
2022-11-29T00:48:36.560Z,9.49
2022-11-29T00:51:03.841Z,9.44
2022-11-29T00:53:30.470Z,9.41
2022-11-29T00:55:57.512Z,9.42
2022-11-29T00:58:24.276Z,9.40
2022-11-29T01:00:51.326Z,9.34
2022-11-29T01:03:17.960Z,9.37
2022-11-29T01:05:44.836Z,9.39
2022-11-29T01:08:12.086Z,9.37
2022-11-29T01:10:38.693Z,9.35
2022-11-29T01:13:05.387Z,9.37
2022-11-29T01:15:32.074Z,9.34
2022-11-29T01:17:58.700Z,9.34
2022-11-29T01:20:25.317Z,9.36
2022-11-29T01:22:52.050Z,9.33
2022-11-29T01:25:18.669Z,9.33
2022-11-29T01:27:45.347Z,9.32
2022-11-29T01:30:12.039Z,9.35
2022-11-29T01:32:38.655Z,9.42
2022-11-29T01:35:05.849Z,9.55
2022-11-29T01:37:32.478Z,9.54
2022-11-29T01:39:59.164Z,9.46
2022-11-29T01:42:25.817Z,9.41
2022-11-29T01:45:13.490Z,9.34
2022-11-29T01:47:41.374Z,9.32
2022-11-29T01:50:08.215Z,9.29
2022-11-29T01:52:34.882Z,9.29
2022-11-29T01:55:02.645Z,9.27
2022-11-29T01:57:29.476Z,9.24
2022-11-29T01:59:58.673Z,9.25
2022-11-29T02:02:32.188Z,9.26
2022-11-29T02:04:59.501Z,9.28
2022-11-29T02:07:26.165Z,9.29
2022-11-29T02:09:52.865Z,9.36
2022-11-29T02:12:25.246Z,9.24
2022-11-29T02:15:07.006Z,9.30
2022-11-29T02:17:43.595Z,9.30
2022-11-29T02:20:34.746Z,9.37
2022-11-29T02:23:20.213Z,9.29
2022-11-29T02:26:01.844Z,9.32
2022-11-29T02:28:33.922Z,9.36
2022-11-29T02:31:13.401Z,9.41
2022-11-29T02:33:46.173Z,9.32
2022-11-29T02:36:25.017Z,9.29
2022-11-29T02:39:03.455Z,9.24
2022-11-29T02:41:29.957Z,9.23
2022-11-29T02:44:41.599Z,9.24
2022-11-29T02:47:15.973Z,9.23
2022-11-29T02:50:05.341Z,9.21
2022-11-29T02:52:45.339Z,9.19
2022-11-29T02:55:23.186Z,9.16
2022-11-29T02:58:03.635Z,9.15
2022-11-29T03:00:30.275Z,9.11
2022-11-29T03:03:26.391Z,9.09
2022-11-29T03:06:13.140Z,9.05
2022-11-29T03:09:01.473Z,9.01
2022-11-29T03:12:12.592Z,8.96
2022-11-29T03:15:02.665Z,8.96
2022-11-29T03:17:57.549Z,8.92
2022-11-29T03:20:56.966Z,8.89
2022-11-29T03:23:59.190Z,8.91
2022-11-29T03:26:40.860Z,8.94
2022-11-29T03:29:11.896Z,8.96
2022-11-29T03:31:44.269Z,8.95
2022-11-29T03:34:29.409Z,8.92
2022-11-29T03:37:21.895Z,8.92
2022-11-29T03:40:00.152Z,8.88
2022-11-29T03:42:28.905Z,8.95
2022-11-29T03:45:05.009Z,8.92
2022-11-29T03:47:36.314Z,8.80
2022-11-29T03:50:09.507Z,8.75
2022-11-29T03:52:47.326Z,8.75
2022-11-29T03:55:32.014Z,8.68
2022-11-29T03:58:52.797Z,8.65
2022-11-29T04:01:21.820Z,8.71
2022-11-29T04:04:25.860Z,8.63
2022-11-29T04:07:10.992Z,8.59
2022-11-29T04:09:59.160Z,8.59
2022-11-29T04:12:47.494Z,8.60
2022-11-29T04:15:42.320Z,8.56
2022-11-29T04:18:24.041Z,8.55
2022-11-29T04:20:53.451Z,8.59
2022-11-29T04:23:36.894Z,8.59
2022-11-29T04:26:09.290Z,8.56
2022-11-29T04:28:47.874Z,8.58
2022-11-29T04:31:46.707Z,8.59
2022-11-29T04:34:35.576Z,8.58
2022-11-29T04:37:08.367Z,8.61
2022-11-29T04:40:08.477Z,8.63
2022-11-29T04:43:13.305Z,8.62
2022-11-29T04:46:05.462Z,8.58
2022-11-29T04:48:57.469Z,8.52
2022-11-29T04:51:58.285Z,8.51
2022-11-29T04:54:45.628Z,8.51
2022-11-29T04:57:40.429Z,8.49
2022-11-29T05:00:12.109Z,8.52
2022-11-29T05:02:57.871Z,8.51
2022-11-29T05:05:29.863Z,8.54
2022-11-29T05:08:21.207Z,8.62
2022-11-29T05:10:56.682Z,8.56
2022-11-29T05:13:44.950Z,8.52
2022-11-29T05:16:30.174Z,8.54
2022-11-29T05:19:17.194Z,8.46
2022-11-29T05:22:02.422Z,8.44
2022-11-29T05:24:47.701Z,8.47
2022-11-29T05:27:22.436Z,8.46
2022-11-29T05:30:10.709Z,8.45
2022-11-29T05:32:46.297Z,8.49
2022-11-29T05:35:50.487Z,8.48
2022-11-29T05:38:39.049Z,8.49
2022-11-29T05:41:08.498Z,8.46
2022-11-29T05:43:44.966Z,8.43
2022-11-29T05:46:29.316Z,8.43
2022-11-29T05:49:18.918Z,8.44
2022-11-29T05:51:51.393Z,8.44
2022-11-29T05:54:26.593Z,8.46
2022-11-29T05:56:59.072Z,8.45
2022-11-29T05:59:28.062Z,8.48
2022-11-29T06:02:10.433Z,8.49
2022-11-29T06:04:55.673Z,8.53
2022-11-29T06:08:11.780Z,8.51
2022-11-29T06:10:39.845Z,8.52
2022-11-29T06:13:35.656Z,8.53
2022-11-29T06:16:08.046Z,8.57
2022-11-29T06:18:47.768Z,8.62
2022-11-29T06:21:43.767Z,8.63
2022-11-29T06:24:26.247Z,8.62
2022-11-29T06:27:13.676Z,8.63
2022-11-29T06:29:58.839Z,8.62
2022-11-29T06:32:42.502Z,8.67
2022-11-29T06:35:18.122Z,8.69
2022-11-29T06:37:52.259Z,8.69
2022-11-29T06:40:18.898Z,8.70
2022-11-29T06:42:45.510Z,8.72
2022-11-29T06:45:13.369Z,8.78
2022-11-29T06:47:45.870Z,8.75
2022-11-29T06:50:37.296Z,8.80
2022-11-29T06:53:11.686Z,8.76
2022-11-29T06:55:56.768Z,8.75
2022-11-29T06:58:45.278Z,8.72
2022-11-29T07:01:33.792Z,8.75
2022-11-29T07:04:12.022Z,8.69
2022-11-29T07:06:38.778Z,8.72
2022-11-29T07:09:17.186Z,8.77
2022-11-29T07:11:44.205Z,8.79
2022-11-29T07:14:10.990Z,8.77
2022-11-29T07:16:55.848Z,8.76
2022-11-29T07:19:33.641Z,8.76
2022-11-29T07:22:18.667Z,8.80
2022-11-29T07:25:02.044Z,8.83
2022-11-29T07:27:40.975Z,8.79
2022-11-29T07:30:41.360Z,8.83
2022-11-29T07:33:29.557Z,8.81
2022-11-29T07:36:18.645Z,8.82
2022-11-29T07:38:55.614Z,8.85
2022-11-29T07:41:38.394Z,8.90
2022-11-29T07:44:23.241Z,8.95
2022-11-29T07:46:49.954Z,8.94
2022-11-29T07:49:16.664Z,8.92
2022-11-29T07:51:44.345Z,8.95
2022-11-29T07:54:12.109Z,9.01
2022-11-29T07:56:38.748Z,9.01
2022-11-29T07:59:05.459Z,9.05
2022-11-29T08:01:32.115Z,9.01
2022-11-29T08:03:58.951Z,9.00
2022-11-29T08:06:25.812Z,9.05
2022-11-29T08:08:52.451Z,9.06
2022-11-29T08:11:19.070Z,9.07
2022-11-29T08:13:45.696Z,9.10
2022-11-29T08:16:16.316Z,9.11
2022-11-29T08:18:42.964Z,9.11
2022-11-29T08:21:09.607Z,9.14
2022-11-29T08:23:36.343Z,9.17
2022-11-29T08:26:03.002Z,9.28
2022-11-29T08:28:29.647Z,9.30
2022-11-29T08:31:06.410Z,9.36
2022-11-29T08:33:35.506Z,9.41
2022-11-29T08:36:06.608Z,9.43
2022-11-29T08:38:33.286Z,9.50
2022-11-29T08:41:06.908Z,9.57
2022-11-29T08:43:33.557Z,9.59
2022-11-29T08:46:00.250Z,9.67
2022-11-29T08:48:26.890Z,9.70
2022-11-29T08:50:53.981Z,9.72
2022-11-29T08:53:20.627Z,9.80
2022-11-29T08:55:47.253Z,9.75
2022-11-29T08:58:14.649Z,9.83
2022-11-29T09:00:42.600Z,9.90
2022-11-29T09:03:09.332Z,9.99
2022-11-29T09:05:36.551Z,9.88
2022-11-29T09:08:03.177Z,9.82
2022-11-29T09:10:29.809Z,9.86
2022-11-29T09:12:56.502Z,9.78
2022-11-29T09:15:23.142Z,9.76
2022-11-29T09:17:49.783Z,9.67
2022-11-29T09:20:16.476Z,9.70
2022-11-29T09:22:43.113Z,9.71
2022-11-29T09:25:09.743Z,9.66
2022-11-29T09:27:36.350Z,9.69
2022-11-29T09:30:02.994Z,9.72
2022-11-29T09:32:29.594Z,9.77
2022-11-29T09:34:56.225Z,9.86
2022-11-29T09:37:22.908Z,9.88
2022-11-29T09:39:49.539Z,9.95
2022-11-29T09:42:27.840Z,10.04
2022-11-29T09:45:11.810Z,10.11
2022-11-29T09:48:04.940Z,10.06
2022-11-29T09:50:38.356Z,10.05
2022-11-29T09:53:26.119Z,10.05
2022-11-29T09:56:29.732Z,9.97
2022-11-29T09:59:01.555Z,10.05
2022-11-29T10:01:39.164Z,10.10
2022-11-29T10:04:14.614Z,10.13
2022-11-29T10:06:57.127Z,10.17
2022-11-29T10:09:33.791Z,10.17
2022-11-29T10:12:30.682Z,10.14
2022-11-29T10:15:15.626Z,10.17
2022-11-29T10:17:47.578Z,10.12
2022-11-29T10:20:19.125Z,10.15
2022-11-29T10:22:47.018Z,10.17
2022-11-29T10:25:29.615Z,10.16
2022-11-29T10:27:56.242Z,10.10
2022-11-29T10:30:22.881Z,10.18
2022-11-29T10:32:55.010Z,10.21
2022-11-29T10:35:21.658Z,10.35
2022-11-29T10:38:07.772Z,10.34
2022-11-29T10:40:35.156Z,10.40
2022-11-29T10:43:01.958Z,10.39
2022-11-29T10:45:33.522Z,10.47
2022-11-29T10:48:16.683Z,10.46
2022-11-29T10:50:44.361Z,10.49
2022-11-29T10:53:17.867Z,10.52
2022-11-29T10:56:13.764Z,10.52
2022-11-29T10:58:54.294Z,10.51
2022-11-29T11:01:20.957Z,10.59
2022-11-29T11:03:54.182Z,10.68
2022-11-29T11:06:24.805Z,10.66
2022-11-29T11:09:11.546Z,10.74
2022-11-29T11:11:38.213Z,10.74
2022-11-29T11:14:05.572Z,10.78
2022-11-29T11:16:37.136Z,10.81
2022-11-29T11:19:31.182Z,10.79
2022-11-29T11:21:59.066Z,10.82
2022-11-29T11:24:28.379Z,10.91
2022-11-29T11:26:55.042Z,10.91
2022-11-29T11:29:24.745Z,10.92
2022-11-29T11:31:54.999Z,10.91
2022-11-29T11:34:30.589Z,10.93
2022-11-29T11:37:15.393Z,10.93
2022-11-29T11:39:42.700Z,10.92
2022-11-29T11:42:14.227Z,10.93
2022-11-29T11:44:58.423Z,10.93
2022-11-29T11:47:29.382Z,10.89
2022-11-29T11:50:02.072Z,10.93
2022-11-29T11:52:52.395Z,10.98
2022-11-29T11:55:18.893Z,10.87
2022-11-29T11:57:45.525Z,10.92
2022-11-29T12:01:02.534Z,10.88
2022-11-29T12:03:35.818Z,11.01
2022-11-29T12:06:22.574Z,11.05
2022-11-29T12:08:49.241Z,11.07
2022-11-29T12:11:17.168Z,11.13
2022-11-29T12:13:49.768Z,11.12
2022-11-29T12:16:22.890Z,11.12
2022-11-29T12:18:50.426Z,11.12
2022-11-29T12:21:21.060Z,11.23
2022-11-29T12:24:21.738Z,11.19
2022-11-29T12:26:56.899Z,11.31
2022-11-29T12:29:24.820Z,11.32
2022-11-29T12:32:13.138Z,11.31
2022-11-29T12:34:58.484Z,11.35
2022-11-29T12:37:27.990Z,11.32
2022-11-29T12:40:12.138Z,11.34
2022-11-29T12:43:07.004Z,11.38
2022-11-29T12:45:41.314Z,11.42
2022-11-29T12:48:10.204Z,11.41
2022-11-29T12:50:55.628Z,11.43
2022-11-29T12:54:07.116Z,11.42
2022-11-29T12:56:57.446Z,11.42
2022-11-29T12:59:38.109Z,11.25
2022-11-29T13:02:27.179Z,11.29
2022-11-29T13:05:00.192Z,11.37
2022-11-29T13:07:26.928Z,11.32
2022-11-29T13:10:18.229Z,11.35
2022-11-29T13:13:17.599Z,11.39
2022-11-29T13:16:02.723Z,11.40
2022-11-29T13:18:34.770Z,11.38
2022-11-29T13:21:11.459Z,11.40
2022-11-29T13:24:08.350Z,11.34
2022-11-29T13:26:35.621Z,11.35
2022-11-29T13:29:02.459Z,11.40
2022-11-29T13:31:29.190Z,11.46
2022-11-29T13:34:13.056Z,11.44
2022-11-29T13:37:01.460Z,11.52
2022-11-29T13:39:46.726Z,11.55
2022-11-29T13:42:16.317Z,11.49
2022-11-29T13:45:06.375Z,11.48
2022-11-29T13:47:32.986Z,11.55
2022-11-29T13:50:03.534Z,11.56
2022-11-29T13:52:42.283Z,11.59
2022-11-29T13:55:11.843Z,11.56
2022-11-29T13:58:16.239Z,11.56
2022-11-29T14:00:43.078Z,11.50
2022-11-29T14:03:18.798Z,11.10
2022-11-29T14:05:46.314Z,10.80
2022-11-29T14:08:54.491Z,10.61
2022-11-29T14:11:24.923Z,10.46
2022-11-29T14:13:52.586Z,10.38
2022-11-29T14:16:28.259Z,10.29
2022-11-29T14:19:06.661Z,10.18
2022-11-29T14:22:01.049Z,10.12
2022-11-29T14:24:33.574Z,10.14
2022-11-29T14:27:06.201Z,10.25
2022-11-29T14:29:47.942Z,10.38
2022-11-29T14:32:34.652Z,10.50
2022-11-29T14:35:10.293Z,10.58
2022-11-29T14:38:01.663Z,10.69
2022-11-29T14:40:36.300Z,10.69
2022-11-29T14:43:02.921Z,10.69
2022-11-29T14:45:31.589Z,10.72
2022-11-29T14:47:58.230Z,10.69
2022-11-29T14:50:37.388Z,10.72
2022-11-29T14:53:06.051Z,10.72
2022-11-29T14:55:36.685Z,10.74
2022-11-29T14:58:05.972Z,10.79
2022-11-29T15:00:32.757Z,10.79
2022-11-29T15:03:13.594Z,10.79
2022-11-29T15:05:42.888Z,10.83
2022-11-29T15:08:26.554Z,10.80
2022-11-29T15:10:59.856Z,10.89
2022-11-29T15:13:31.471Z,10.88
2022-11-29T15:16:24.096Z,10.79
2022-11-29T15:19:15.458Z,10.77
2022-11-29T15:22:09.785Z,10.73
2022-11-29T15:25:00.087Z,10.67
2022-11-29T15:27:26.960Z,10.69
2022-11-29T15:29:53.631Z,10.66
2022-11-29T15:32:29.370Z,10.81
2022-11-29T15:34:55.994Z,10.62
2022-11-29T15:37:38.466Z,10.61
2022-11-29T15:40:23.874Z,10.61
2022-11-29T15:43:13.363Z,10.50
2022-11-29T15:45:40.040Z,10.46
2022-11-29T15:48:22.954Z,10.55
2022-11-29T15:51:15.453Z,10.45
2022-11-29T15:53:45.475Z,10.37
2022-11-29T15:56:47.969Z,10.26
2022-11-29T15:59:41.041Z,10.25
2022-11-29T16:02:21.599Z,10.26
2022-11-29T16:04:49.492Z,10.23
2022-11-29T16:07:16.506Z,10.20
2022-11-29T16:09:44.950Z,10.18
2022-11-29T16:12:16.360Z,10.20
2022-11-29T16:14:52.864Z,10.19
2022-11-29T16:17:20.034Z,10.20
2022-11-29T16:19:46.816Z,10.28
2022-11-29T16:22:23.617Z,10.24
2022-11-29T16:24:59.054Z,10.16
2022-11-29T16:27:25.686Z,10.14
2022-11-29T16:29:52.313Z,10.26
2022-11-29T16:32:29.444Z,10.17
2022-11-29T16:34:57.204Z,10.12
2022-11-29T16:37:25.509Z,9.90
2022-11-29T16:39:55.312Z,9.76
2022-11-29T16:42:25.912Z,9.67
2022-11-29T16:45:01.806Z,9.60
2022-11-29T16:47:47.023Z,9.58
2022-11-29T16:50:17.949Z,9.52
2022-11-29T16:52:44.575Z,9.50
2022-11-29T16:55:11.209Z,9.47
2022-11-29T16:57:38.110Z,9.53
2022-11-29T17:00:31.791Z,9.55
2022-11-29T17:02:58.593Z,9.45
2022-11-29T17:05:25.366Z,9.53
2022-11-29T17:07:52.133Z,9.59
2022-11-29T17:10:21.207Z,9.49
2022-11-29T17:12:48.520Z,9.63
2022-11-29T17:15:15.374Z,9.59
2022-11-29T17:17:42.537Z,9.50
2022-11-29T17:20:11.768Z,9.44
2022-11-29T17:22:38.400Z,9.41
2022-11-29T17:25:05.316Z,9.32
2022-11-29T17:27:31.949Z,9.25
2022-11-29T17:29:58.591Z,9.26
2022-11-29T17:32:26.995Z,9.23
2022-11-29T17:34:53.946Z,9.15
2022-11-29T17:37:20.577Z,9.13
2022-11-29T17:39:47.466Z,8.95
2022-11-29T17:42:14.303Z,8.82
2022-11-29T17:44:41.084Z,8.73
2022-11-29T17:47:07.698Z,8.64
2022-11-29T17:49:34.333Z,8.62
2022-11-29T17:52:00.953Z,8.57
2022-11-29T17:54:27.589Z,8.57
2022-11-29T17:56:54.244Z,8.56
2022-11-29T17:59:20.882Z,8.54
2022-11-29T18:01:47.715Z,8.53
2022-11-29T18:04:14.809Z,8.46
2022-11-29T18:06:41.472Z,8.43
2022-11-29T18:09:08.909Z,8.43
2022-11-29T18:11:45.281Z,8.47
2022-11-29T18:14:14.975Z,8.44
2022-11-29T18:16:41.624Z,8.39
2022-11-29T18:19:10.783Z,8.43
2022-11-29T18:21:37.832Z,8.41
2022-11-29T18:24:05.234Z,8.38
2022-11-29T18:26:32.467Z,8.36
2022-11-29T18:28:59.252Z,8.28
2022-11-29T18:31:30.152Z,8.31
2022-11-29T18:33:58.258Z,8.22
2022-11-29T18:36:29.175Z,8.23
2022-11-29T18:38:57.137Z,8.35
2022-11-29T18:41:24.324Z,8.19
2022-11-29T18:43:57.889Z,8.11
2022-11-29T18:46:24.727Z,8.11
2022-11-29T18:48:51.764Z,8.09
2022-11-29T18:51:19.261Z,8.10
2022-11-29T18:53:45.930Z,8.05
2022-11-29T18:56:17.453Z,8.03
2022-11-29T18:58:45.624Z,7.99
2022-11-29T19:01:15.646Z,7.95
2022-11-29T19:03:44.411Z,7.96
2022-11-29T19:06:15.536Z,7.95
2022-11-29T19:08:42.460Z,7.87
2022-11-29T19:11:13.098Z,7.74
2022-11-29T19:13:39.987Z,7.60
2022-11-29T19:16:07.754Z,7.50
2022-11-29T19:18:34.882Z,7.47
2022-11-29T19:21:10.965Z,7.44
2022-11-29T19:23:37.637Z,7.45
2022-11-29T19:26:08.942Z,7.49
2022-11-29T19:28:36.225Z,7.47
2022-11-29T19:31:03.133Z,7.45
2022-11-29T19:33:29.803Z,7.47
2022-11-29T19:35:56.573Z,7.53
2022-11-29T19:38:23.215Z,7.47
2022-11-29T19:40:49.861Z,7.40
2022-11-29T19:43:16.527Z,7.37
2022-11-29T19:45:43.169Z,7.31
2022-11-29T19:48:09.807Z,7.26
2022-11-29T19:50:36.451Z,7.32
2022-11-29T19:53:03.090Z,7.27
2022-11-29T19:55:29.726Z,7.28
2022-11-29T19:57:56.456Z,7.28
2022-11-29T20:00:23.104Z,7.27
2022-11-29T20:02:49.871Z,7.32
2022-11-29T20:05:16.514Z,7.29
2022-11-29T20:07:43.194Z,7.27
2022-11-29T20:10:10.140Z,7.27
2022-11-29T20:12:36.752Z,7.24
2022-11-29T20:15:03.564Z,7.22
2022-11-29T20:17:30.180Z,7.21
2022-11-29T20:19:56.859Z,7.19
2022-11-29T20:22:23.553Z,7.14
2022-11-29T20:24:50.220Z,7.15
2022-11-29T20:27:16.845Z,7.22
2022-11-29T20:29:43.570Z,7.23
2022-11-29T20:32:10.301Z,7.25
2022-11-29T20:34:37.097Z,7.33
2022-11-29T20:37:09.559Z,7.38
2022-11-29T20:39:54.802Z,7.48
2022-11-29T20:42:41.764Z,7.40
2022-11-29T20:45:08.993Z,7.41
2022-11-29T20:47:50.625Z,7.41
2022-11-29T20:50:26.655Z,7.50
2022-11-29T20:53:15.274Z,7.46
2022-11-29T20:55:47.755Z,7.45
2022-11-29T20:58:15.080Z,7.36
2022-11-29T21:00:41.699Z,7.36
2022-11-29T21:03:08.400Z,7.40
2022-11-29T21:05:37.658Z,7.37
2022-11-29T21:08:04.356Z,7.34
2022-11-29T21:10:31.102Z,7.29
2022-11-29T21:12:57.903Z,7.25
2022-11-29T21:15:24.760Z,7.23
2022-11-29T21:17:51.642Z,7.17
2022-11-29T21:20:21.389Z,7.12
2022-11-29T21:22:56.536Z,7.10
2022-11-29T21:25:45.288Z,7.14
2022-11-29T21:28:12.917Z,7.18
2022-11-29T21:30:39.817Z,7.12
2022-11-29T21:33:06.782Z,7.15
2022-11-29T21:35:33.398Z,7.15
2022-11-29T21:38:00.975Z,7.13
2022-11-29T21:40:27.751Z,7.20
2022-11-29T21:42:54.509Z,7.16
2022-11-29T21:45:21.155Z,7.14
2022-11-29T21:47:47.793Z,7.11
2022-11-29T21:50:14.488Z,7.06
2022-11-29T21:52:41.126Z,7.01
2022-11-29T21:55:08.154Z,6.97
2022-11-29T21:57:35.083Z,6.88
2022-11-29T22:00:02.124Z,6.82
2022-11-29T22:02:29.160Z,6.81
2022-11-29T22:04:55.943Z,6.83
2022-11-29T22:07:22.639Z,6.86
2022-11-29T22:09:49.832Z,6.86
2022-11-29T22:12:33.652Z,6.85
2022-11-29T22:15:01.454Z,6.85
2022-11-29T22:17:28.116Z,6.79
2022-11-29T22:19:54.756Z,6.79
2022-11-29T22:22:21.398Z,6.76
2022-11-29T22:24:48.175Z,6.70
2022-11-29T22:27:15.447Z,6.73
2022-11-29T22:29:42.127Z,6.75
2022-11-29T22:32:08.897Z,6.76
2022-11-29T22:34:35.541Z,6.72
2022-11-29T22:37:02.239Z,6.72
2022-11-29T22:39:29.171Z,6.70
2022-11-29T22:41:55.944Z,6.66
2022-11-29T22:44:25.001Z,6.70
2022-11-29T22:46:51.691Z,6.71
2022-11-29T22:49:18.402Z,6.73
2022-11-29T22:51:45.043Z,6.76
2022-11-29T22:54:11.861Z,6.81
2022-11-29T22:56:40.370Z,6.77
2022-11-29T22:59:07.274Z,6.78
2022-11-29T23:01:35.756Z,6.82
2022-11-29T23:04:04.311Z,6.80
2022-11-29T23:06:32.557Z,6.84
2022-11-29T23:09:03.297Z,6.82
2022-11-29T23:11:30.002Z,6.81
2022-11-29T23:13:56.680Z,6.87
2022-11-29T23:16:25.055Z,6.79
2022-11-29T23:18:51.874Z,6.79
2022-11-29T23:21:19.490Z,6.84
2022-11-29T23:23:47.533Z,6.88
2022-11-29T23:26:18.795Z,6.91
2022-11-29T23:28:46.081Z,6.94
2022-11-29T23:31:12.863Z,6.96
2022-11-29T23:33:39.522Z,7.01
2022-11-29T23:36:07.280Z,7.01
2022-11-29T23:38:34.173Z,6.92
2022-11-29T23:41:00.815Z,6.83
2022-11-29T23:43:34.182Z,6.84
2022-11-29T23:46:05.520Z,6.81
2022-11-29T23:48:32.260Z,6.82
2022-11-29T23:50:58.920Z,6.94
2022-11-29T23:53:25.568Z,6.94
2022-11-29T23:56:02.930Z,6.82
2022-11-29T23:58:29.729Z,6.84
